createdAt,value
2019-02-26T00:02:14.871Z,5.40
2019-02-26T00:04:41.837Z,5.30
2019-02-26T00:07:08.477Z,5.30
2019-02-26T00:09:35.465Z,5.30
2019-02-26T00:12:02.179Z,5.30
2019-02-26T00:14:30.280Z,5.20
2019-02-26T00:16:56.875Z,5.20
2019-02-26T00:19:23.276Z,5.20
2019-02-26T00:21:51.775Z,5.20
2019-02-26T00:24:18.474Z,5.10
2019-02-26T00:26:45.140Z,5.10
2019-02-26T00:29:11.647Z,5.10
2019-02-26T00:31:38.058Z,5.10
2019-02-26T00:34:05.985Z,5.00
2019-02-26T00:36:33.656Z,5.00
2019-02-26T00:39:02.906Z,5.00
2019-02-26T00:41:33.074Z,5.00
2019-02-26T00:44:00.570Z,5.10
2019-02-26T00:46:28.506Z,5.10
2019-02-26T00:48:58.719Z,5.10
2019-02-26T00:51:26.909Z,5.10
2019-02-26T00:53:55.151Z,5.10
2019-02-26T00:56:22.768Z,5.00
2019-02-26T00:58:50.488Z,5.10
2019-02-26T01:01:17.769Z,5.10
2019-02-26T01:03:47.140Z,5.10
2019-02-26T01:06:13.655Z,5.00
2019-02-26T01:08:47.082Z,5.00
2019-02-26T01:11:13.547Z,5.00
2019-02-26T01:13:40.171Z,5.00
2019-02-26T01:16:06.564Z,5.00
2019-02-26T01:18:32.965Z,4.90
2019-02-26T01:21:00.325Z,4.90
2019-02-26T01:23:28.977Z,4.90
2019-02-26T01:25:55.401Z,4.90
2019-02-26T01:28:22.621Z,4.80
2019-02-26T01:30:53.653Z,4.80
2019-02-26T01:33:18.411Z,4.80
2019-02-26T01:35:45.099Z,4.70
2019-02-26T01:38:12.612Z,4.70
2019-02-26T01:40:43.638Z,4.80
2019-02-26T01:43:08.292Z,4.80
2019-02-26T01:45:36.382Z,4.90
2019-02-26T01:48:04.502Z,4.80
2019-02-26T01:50:33.427Z,4.70
2019-02-26T01:53:01.046Z,4.70
2019-02-26T01:55:27.778Z,4.70
2019-02-26T01:57:54.299Z,4.70
2019-02-26T02:00:20.646Z,4.80
2019-02-26T02:02:47.562Z,5.00
2019-02-26T02:05:14.165Z,5.10
2019-02-26T02:07:41.023Z,5.10
2019-02-26T02:10:15.067Z,5.20
2019-02-26T02:12:41.607Z,5.30
2019-02-26T02:15:12.487Z,5.20
2019-02-26T02:17:40.144Z,5.20
2019-02-26T02:20:13.131Z,5.40
2019-02-26T02:22:39.993Z,5.60
2019-02-26T02:25:09.166Z,5.60
2019-02-26T02:27:35.808Z,5.60
2019-02-26T02:30:14.179Z,5.50
2019-02-26T02:32:39.430Z,5.40
2019-02-26T02:35:09.443Z,5.20
2019-02-26T02:37:36.296Z,5.00
2019-02-26T02:40:06.579Z,4.80
2019-02-26T02:42:35.110Z,4.70
2019-02-26T02:45:01.459Z,4.50
2019-02-26T02:47:30.733Z,4.30
2019-02-26T02:49:56.438Z,4.30
2019-02-26T02:52:24.229Z,4.20
2019-02-26T02:54:51.883Z,4.10
2019-02-26T02:57:18.403Z,4.10
2019-02-26T02:59:44.762Z,4.00
2019-02-26T03:02:12.695Z,4.00
2019-02-26T03:04:39.915Z,3.90
2019-02-26T03:07:06.519Z,3.90
2019-02-26T03:09:37.217Z,3.70
2019-02-26T03:12:02.181Z,3.60
2019-02-26T03:14:32.462Z,3.60
2019-02-26T03:16:56.816Z,3.60
2019-02-26T03:19:23.235Z,3.60
2019-02-26T03:21:52.620Z,3.60
2019-02-26T03:24:18.893Z,3.60
2019-02-26T03:26:45.296Z,3.60
2019-02-26T03:29:11.886Z,3.70
2019-02-26T03:31:40.632Z,4.60
2019-02-26T03:34:10.538Z,4.90
2019-02-26T03:36:37.352Z,5.00
2019-02-26T03:39:05.088Z,5.00
2019-02-26T03:41:33.360Z,5.40
2019-02-26T03:44:00.707Z,5.50
2019-02-26T03:46:28.698Z,5.60
2019-02-26T03:48:55.090Z,5.50
2019-02-26T03:51:21.745Z,5.50
2019-02-26T03:53:48.166Z,5.40
2019-02-26T03:56:17.538Z,5.20
2019-02-26T03:58:43.597Z,4.90
2019-02-26T04:01:13.049Z,4.70
2019-02-26T04:03:39.559Z,4.60
2019-02-26T04:06:09.439Z,4.60
2019-02-26T04:08:35.605Z,4.60
2019-02-26T04:11:02.091Z,4.60
2019-02-26T04:13:28.590Z,4.50
2019-02-26T04:15:57.127Z,4.50
2019-02-26T04:18:23.742Z,4.30
2019-02-26T04:20:50.157Z,4.20
2019-02-26T04:23:19.239Z,4.30
2019-02-26T04:25:54.706Z,4.30
2019-02-26T04:28:39.359Z,4.30
2019-02-26T04:31:11.200Z,4.20
2019-02-26T04:33:53.727Z,4.00
2019-02-26T04:36:29.281Z,3.90
2019-02-26T04:39:27.526Z,3.80
2019-02-26T04:42:33.151Z,4.10
2019-02-26T04:45:42.733Z,4.50
2019-02-26T04:48:17.171Z,4.70
2019-02-26T04:50:44.592Z,4.80
2019-02-26T04:53:11.262Z,4.90
2019-02-26T04:55:39.153Z,4.90
2019-02-26T04:58:08.621Z,4.80
2019-02-26T05:00:37.949Z,4.80
2019-02-26T05:03:05.185Z,4.80
2019-02-26T05:05:34.306Z,4.60
2019-02-26T05:07:59.801Z,4.50
2019-02-26T05:10:28.542Z,4.30
2019-02-26T05:12:56.997Z,4.10
2019-02-26T05:15:25.659Z,4.10
2019-02-26T05:17:51.266Z,4.00
2019-02-26T05:20:19.008Z,4.20
2019-02-26T05:22:45.476Z,4.20
2019-02-26T05:25:16.228Z,4.30
2019-02-26T05:27:42.862Z,4.30
2019-02-26T05:30:09.842Z,4.40
2019-02-26T05:32:37.484Z,4.50
2019-02-26T05:35:04.753Z,4.90
2019-02-26T05:37:32.581Z,5.20
2019-02-26T05:39:59.728Z,5.30
2019-02-26T05:42:26.423Z,5.50
2019-02-26T05:44:54.533Z,5.50
2019-02-26T05:47:21.969Z,5.60
2019-02-26T05:49:49.875Z,5.60
2019-02-26T05:52:16.224Z,5.50
2019-02-26T05:54:42.636Z,5.50
2019-02-26T05:57:25.644Z,5.60
2019-02-26T05:59:38.034Z,5.60
2019-02-26T06:02:04.433Z,5.70
2019-02-26T06:04:32.087Z,5.80
2019-02-26T06:07:01.533Z,5.80
2019-02-26T06:09:29.861Z,5.90
2019-02-26T06:11:55.496Z,6.00
2019-02-26T06:14:24.639Z,6.10
2019-02-26T06:16:52.649Z,6.20
2019-02-26T06:19:24.314Z,6.20
2019-02-26T06:21:52.492Z,6.20
2019-02-26T06:24:22.397Z,6.10
2019-02-26T06:26:48.502Z,6.10
2019-02-26T06:29:14.928Z,5.90
2019-02-26T06:31:42.274Z,5.90
2019-02-26T06:34:13.791Z,5.80
2019-02-26T06:36:39.701Z,5.70
2019-02-26T06:39:06.121Z,5.80
2019-02-26T06:41:32.860Z,5.70
2019-02-26T06:43:59.170Z,5.80
2019-02-26T06:46:26.980Z,5.60
2019-02-26T06:48:54.255Z,5.70
2019-02-26T06:51:22.094Z,5.80
2019-02-26T06:53:51.636Z,5.90
2019-02-26T06:56:18.015Z,6.00
2019-02-26T06:58:45.143Z,6.20
2019-02-26T07:01:14.393Z,6.20
2019-02-26T07:03:41.209Z,6.40
2019-02-26T07:06:07.791Z,6.60
2019-02-26T07:08:34.395Z,6.70
2019-02-26T07:11:00.988Z,6.90
2019-02-26T07:13:27.628Z,7.10
2019-02-26T07:15:54.027Z,7.30
2019-02-26T07:18:20.343Z,7.40
2019-02-26T07:20:49.664Z,7.50
2019-02-26T07:23:15.537Z,7.50
2019-02-26T07:25:44.084Z,7.60
2019-02-26T07:28:10.283Z,7.50
2019-02-26T07:30:37.481Z,7.40
2019-02-26T07:33:05.779Z,7.70
2019-02-26T07:35:35.023Z,7.70
2019-02-26T07:38:03.488Z,7.60
2019-02-26T07:40:30.527Z,7.70
2019-02-26T07:42:57.868Z,7.90
2019-02-26T07:45:24.896Z,8.00
2019-02-26T07:47:55.424Z,8.10
2019-02-26T07:50:20.710Z,8.20
2019-02-26T07:52:47.857Z,8.20
2019-02-26T07:55:17.456Z,8.20
2019-02-26T07:57:45.659Z,8.30
2019-02-26T08:00:21.801Z,8.40
2019-02-26T08:02:48.126Z,8.50
2019-02-26T08:05:16.977Z,8.60
2019-02-26T08:07:46.092Z,8.60
2019-02-26T08:10:16.786Z,8.80
2019-02-26T08:12:44.797Z,8.70
2019-02-26T08:15:15.433Z,8.80
2019-02-26T08:17:45.652Z,8.80
2019-02-26T08:20:14.907Z,8.80
2019-02-26T08:22:41.729Z,9.00
2019-02-26T08:25:10.112Z,8.90
2019-02-26T08:27:37.896Z,9.00
2019-02-26T08:30:09.939Z,9.20
2019-02-26T08:32:36.263Z,9.40
2019-02-26T08:35:05.006Z,9.50
2019-02-26T08:37:31.365Z,9.70
2019-02-26T08:39:58.258Z,9.70
2019-02-26T08:42:24.924Z,9.30
2019-02-26T08:44:53.648Z,9.30
2019-02-26T08:47:21.137Z,9.40
2019-02-26T08:49:47.985Z,9.40
2019-02-26T08:52:16.854Z,9.40
2019-02-26T08:54:42.648Z,9.80
2019-02-26T08:57:09.085Z,9.70
2019-02-26T08:59:35.675Z,9.90
2019-02-26T09:02:02.326Z,10.10
2019-02-26T09:04:30.035Z,10.40
2019-02-26T09:06:57.604Z,10.60
2019-02-26T09:09:25.927Z,10.30
2019-02-26T09:11:55.330Z,10.60
2019-02-26T09:14:21.488Z,10.50
2019-02-26T09:16:51.922Z,10.60
2019-02-26T09:19:16.611Z,10.60
2019-02-26T09:21:45.244Z,10.60
2019-02-26T09:24:11.591Z,10.90
2019-02-26T09:26:37.958Z,10.70
2019-02-26T09:29:05.547Z,10.40
2019-02-26T09:31:31.864Z,10.40
2019-02-26T09:33:58.195Z,10.40
2019-02-26T09:36:26.231Z,10.40
2019-02-26T09:38:53.280Z,10.70
2019-02-26T09:41:21.471Z,10.70
2019-02-26T09:43:48.190Z,10.70
2019-02-26T09:46:16.862Z,10.60
2019-02-26T09:48:45.176Z,10.80
2019-02-26T09:51:12.436Z,11.00
2019-02-26T09:53:39.886Z,11.10
2019-02-26T09:56:06.526Z,11.20
2019-02-26T09:58:32.942Z,11.20
2019-02-26T10:01:00.143Z,11.30
2019-02-26T10:03:27.268Z,11.40
2019-02-26T10:05:56.066Z,11.60
2019-02-26T10:08:24.880Z,11.60
2019-02-26T10:10:52.686Z,11.50
2019-02-26T10:13:21.075Z,11.20
2019-02-26T10:15:48.338Z,11.20
2019-02-26T10:18:14.966Z,11.40
2019-02-26T10:20:43.320Z,11.40
2019-02-26T10:23:10.617Z,11.50
2019-02-26T10:25:38.653Z,11.60
2019-02-26T10:28:08.718Z,11.60
2019-02-26T10:30:35.975Z,11.70
2019-02-26T10:33:03.014Z,11.70
2019-02-26T10:35:33.277Z,11.60
2019-02-26T10:38:02.179Z,11.80
2019-02-26T10:40:34.555Z,11.90
2019-02-26T10:42:55.601Z,11.70
2019-02-26T10:45:25.176Z,11.80
2019-02-26T10:47:53.524Z,12.10
2019-02-26T10:50:24.899Z,12.10
2019-02-26T10:52:52.751Z,12.10
2019-02-26T10:55:21.913Z,12.30
2019-02-26T10:57:47.905Z,12.30
2019-02-26T11:00:19.917Z,12.40
2019-02-26T11:02:48.455Z,12.40
2019-02-26T11:05:17.545Z,12.60
2019-02-26T11:07:44.686Z,13.10
2019-02-26T11:10:14.490Z,13.30
2019-02-26T11:12:40.443Z,13.10
2019-02-26T11:15:13.818Z,13.20
2019-02-26T11:17:42.509Z,13.20
2019-02-26T11:20:15.652Z,12.80
2019-02-26T11:22:44.723Z,12.80
2019-02-26T11:25:13.985Z,13.10
2019-02-26T11:27:43.493Z,13.50
2019-02-26T11:30:18.286Z,13.50
2019-02-26T11:32:44.558Z,13.70
2019-02-26T11:35:14.679Z,14.20
2019-02-26T11:37:44.900Z,14.50
2019-02-26T11:40:22.999Z,15.60
2019-02-26T11:42:51.138Z,16.40
2019-02-26T11:45:19.521Z,16.70
2019-02-26T11:47:46.336Z,14.60
2019-02-26T11:50:27.120Z,14.50
2019-02-26T11:52:54.826Z,15.60
2019-02-26T11:55:20.941Z,16.30
2019-02-26T11:57:49.746Z,17.10
2019-02-26T12:00:42.828Z,18.20
2019-02-26T12:03:45.301Z,17.70
2019-02-26T12:06:11.618Z,16.40
2019-02-26T12:08:39.658Z,15.60
2019-02-26T12:11:07.480Z,15.60
2019-02-26T12:13:35.021Z,15.60
2019-02-26T12:16:01.617Z,15.40
2019-02-26T12:18:27.934Z,15.70
2019-02-26T12:20:54.249Z,15.10
2019-02-26T12:23:22.725Z,14.40
2019-02-26T12:25:49.857Z,14.30
2019-02-26T12:28:17.151Z,14.50
2019-02-26T12:30:46.128Z,14.30
2019-02-26T12:33:14.329Z,13.90
2019-02-26T12:35:40.806Z,13.90
2019-02-26T12:38:18.080Z,13.90
2019-02-26T12:40:37.897Z,14.00
2019-02-26T12:43:06.557Z,13.70
2019-02-26T12:45:35.114Z,13.40
2019-02-26T12:48:02.017Z,13.50
2019-02-26T12:50:30.815Z,13.70
2019-02-26T12:52:57.711Z,13.60
2019-02-26T12:55:31.214Z,13.60
2019-02-26T12:57:52.893Z,13.60
2019-02-26T13:00:23.185Z,13.40
2019-02-26T13:02:52.131Z,13.50
2019-02-26T13:05:19.563Z,13.50
2019-02-26T13:07:46.619Z,13.90
2019-02-26T13:10:23.969Z,14.20
2019-02-26T13:12:55.188Z,14.00
2019-02-26T13:15:20.272Z,13.90
2019-02-26T13:17:48.988Z,14.10
2019-02-26T13:20:18.090Z,13.90
2019-02-26T13:22:45.952Z,13.70
2019-02-26T13:25:17.043Z,13.90
2019-02-26T13:27:43.557Z,13.80
2019-02-26T13:30:17.968Z,13.90
2019-02-26T13:35:12.649Z,13.70
2019-02-26T13:37:42.054Z,13.60
2019-02-26T13:40:22.226Z,13.80
2019-02-26T13:45:19.879Z,14.50
2019-02-26T13:47:46.660Z,14.60
2019-02-26T13:50:27.867Z,14.60
2019-02-26T13:52:54.487Z,14.50
2019-02-26T13:55:20.876Z,14.70
2019-02-26T13:57:47.258Z,14.70
2019-02-26T14:00:15.399Z,14.70
2019-02-26T14:02:42.189Z,14.40
2019-02-26T14:05:10.640Z,14.00
2019-02-26T14:07:37.222Z,13.80
2019-02-26T14:10:09.540Z,13.70
2019-02-26T14:12:35.838Z,13.90
2019-02-26T14:15:04.881Z,13.60
2019-02-26T14:17:31.496Z,13.50
2019-02-26T14:19:57.833Z,13.60
2019-02-26T14:22:24.142Z,13.80
2019-02-26T14:24:50.451Z,14.00
2019-02-26T14:27:16.784Z,13.80
2019-02-26T14:29:43.426Z,13.70
2019-02-26T14:32:11.048Z,13.80
2019-02-26T14:34:37.353Z,14.20
2019-02-26T14:37:03.835Z,14.10
2019-02-26T14:39:30.209Z,14.10
2019-02-26T14:41:56.746Z,14.00
2019-02-26T14:44:23.105Z,13.80
2019-02-26T14:46:49.476Z,13.80
2019-02-26T14:49:16.986Z,13.60
2019-02-26T14:51:43.316Z,13.50
2019-02-26T14:54:09.911Z,13.50
2019-02-26T14:56:36.277Z,13.50
2019-02-26T14:59:02.669Z,13.50
2019-02-26T15:01:29.358Z,13.30
2019-02-26T15:03:55.905Z,13.30
2019-02-26T15:06:22.660Z,13.20
2019-02-26T15:08:49.348Z,13.20
2019-02-26T15:11:15.696Z,13.10
2019-02-26T15:13:42.463Z,13.10
2019-02-26T15:16:08.827Z,12.90
2019-02-26T15:18:35.778Z,12.70
2019-02-26T15:21:02.545Z,12.70
2019-02-26T15:23:28.904Z,12.70
2019-02-26T15:25:55.244Z,12.70
2019-02-26T15:28:21.841Z,12.60
2019-02-26T15:30:48.200Z,12.70
2019-02-26T15:33:14.792Z,12.70
2019-02-26T15:35:41.152Z,12.50
2019-02-26T15:38:07.483Z,12.40
2019-02-26T15:40:33.825Z,12.50
2019-02-26T15:43:00.421Z,12.40
2019-02-26T15:45:29.680Z,12.40
2019-02-26T15:47:56.133Z,12.30
2019-02-26T15:50:23.660Z,12.30
2019-02-26T15:52:52.976Z,12.30
2019-02-26T15:55:28.818Z,12.20
2019-02-26T15:57:54.800Z,12.20
2019-02-26T16:00:22.924Z,12.20
2019-02-26T16:02:50.916Z,12.10
2019-02-26T16:05:18.071Z,12.10
2019-02-26T16:07:44.686Z,12.10
2019-02-26T16:10:11.961Z,12.00
2019-02-26T16:12:38.404Z,12.00
2019-02-26T16:15:09.645Z,12.00
2019-02-26T16:17:36.332Z,12.00
2019-02-26T16:20:17.690Z,12.00
2019-02-26T16:22:44.411Z,11.90
2019-02-26T16:25:10.868Z,11.90
2019-02-26T16:27:37.846Z,11.90
2019-02-26T16:30:25.307Z,11.90
2019-02-26T16:32:51.924Z,11.90
2019-02-26T16:35:18.247Z,11.70
2019-02-26T16:37:44.581Z,11.70
2019-02-26T16:40:15.147Z,11.60
2019-02-26T16:42:44.330Z,11.50
2019-02-26T16:45:18.282Z,11.40
2019-02-26T16:47:45.953Z,11.40
2019-02-26T16:50:19.225Z,11.40
2019-02-26T16:52:46.625Z,11.30
2019-02-26T16:55:17.130Z,11.40
2019-02-26T16:57:42.146Z,11.40
2019-02-26T17:00:18.008Z,11.40
2019-02-26T17:02:45.474Z,11.40
2019-02-26T17:05:15.011Z,11.40
2019-02-26T17:07:40.218Z,11.40
2019-02-26T17:10:11.156Z,11.40
2019-02-26T17:12:37.682Z,11.40
2019-02-26T17:15:15.462Z,11.40
2019-02-26T17:17:41.907Z,11.40
2019-02-26T17:20:08.947Z,11.40
2019-02-26T17:22:35.850Z,11.40
2019-02-26T17:25:04.764Z,11.30
2019-02-26T17:27:31.327Z,11.30
2019-02-26T17:29:57.932Z,11.40
2019-02-26T17:32:24.264Z,11.30
2019-02-26T17:34:50.973Z,11.30
2019-02-26T17:37:19.488Z,11.20
2019-02-26T17:39:45.912Z,11.20
2019-02-26T17:42:12.215Z,11.30
2019-02-26T17:44:38.555Z,11.30
2019-02-26T17:47:04.900Z,11.30
2019-02-26T17:49:33.676Z,11.30
2019-02-26T17:51:59.835Z,11.30
2019-02-26T17:54:26.304Z,11.30
2019-02-26T17:56:53.001Z,11.30
2019-02-26T17:59:19.810Z,11.30
2019-02-26T18:01:46.146Z,11.30
2019-02-26T18:04:13.284Z,11.20
2019-02-26T18:06:39.882Z,11.20
2019-02-26T18:09:06.495Z,11.20
2019-02-26T18:11:36.529Z,11.20
2019-02-26T18:14:03.471Z,11.10
2019-02-26T18:16:31.720Z,11.10
2019-02-26T18:18:59.520Z,11.10
2019-02-26T18:21:26.687Z,11.00
2019-02-26T18:23:54.325Z,11.00
2019-02-26T18:26:21.033Z,10.90
2019-02-26T18:28:47.893Z,10.80
2019-02-26T18:31:16.246Z,10.80
2019-02-26T18:33:42.963Z,10.80
2019-02-26T18:36:09.393Z,10.70
2019-02-26T18:38:35.852Z,10.60
2019-02-26T18:41:02.185Z,10.50
2019-02-26T18:43:28.603Z,10.40
2019-02-26T18:45:54.989Z,10.30
2019-02-26T18:48:21.611Z,10.30
2019-02-26T18:50:48.280Z,10.30
2019-02-26T18:53:14.801Z,10.20
2019-02-26T18:55:41.155Z,10.20
2019-02-26T18:58:08.490Z,10.10
2019-02-26T19:00:35.179Z,10.00
2019-02-26T19:03:02.102Z,9.90
2019-02-26T19:05:28.557Z,9.70
2019-02-26T19:07:54.888Z,9.60
2019-02-26T19:10:21.430Z,9.40
2019-02-26T19:12:47.812Z,9.30
2019-02-26T19:15:27.084Z,9.10
2019-02-26T19:17:53.709Z,9.00
2019-02-26T19:20:29.555Z,8.90
2019-02-26T19:22:58.529Z,8.80
2019-02-26T19:25:24.576Z,8.80
2019-02-26T19:27:53.112Z,8.70
2019-02-26T19:30:21.401Z,8.60
2019-02-26T19:32:48.396Z,8.50
2019-02-26T19:35:15.188Z,8.50
2019-02-26T19:37:42.333Z,8.50
2019-02-26T19:40:12.860Z,8.60
2019-02-26T19:42:39.286Z,8.70
2019-02-26T19:45:11.728Z,8.80
2019-02-26T19:47:38.433Z,8.80
2019-02-26T19:50:14.807Z,8.80
2019-02-26T19:52:41.287Z,8.80
2019-02-26T19:55:30.959Z,8.70
2019-02-26T19:58:02.850Z,8.80
2019-02-26T20:00:27.187Z,8.80
2019-02-26T20:02:53.867Z,8.70
2019-02-26T20:05:20.247Z,8.70
2019-02-26T20:07:46.597Z,8.70
2019-02-26T20:10:17.800Z,8.70
2019-02-26T20:12:44.129Z,8.70
2019-02-26T20:15:13.321Z,8.70
2019-02-26T20:17:40.116Z,8.60
2019-02-26T20:20:16.778Z,8.60
2019-02-26T20:22:43.676Z,8.60
2019-02-26T20:25:14.081Z,8.50
2019-02-26T20:27:40.643Z,8.40
2019-02-26T20:30:12.368Z,8.30
2019-02-26T20:32:40.591Z,8.20
2019-02-26T20:35:11.936Z,8.10
2019-02-26T20:37:38.405Z,8.00
2019-02-26T20:40:22.852Z,8.00
2019-02-26T20:42:49.276Z,7.90
2019-02-26T20:45:18.159Z,7.90
2019-02-26T20:47:46.344Z,8.00
2019-02-26T20:50:13.186Z,7.90
2019-02-26T20:52:39.753Z,7.90
2019-02-26T20:55:10.571Z,7.80
2019-02-26T20:57:37.787Z,7.90
2019-02-26T21:00:12.206Z,7.90
2019-02-26T21:02:40.629Z,7.90
2019-02-26T21:05:09.994Z,7.80
2019-02-26T21:07:36.322Z,7.80
2019-02-26T21:10:06.473Z,7.80
2019-02-26T21:12:34.805Z,7.70
2019-02-26T21:15:01.821Z,7.60
2019-02-26T21:17:28.504Z,7.60
2019-02-26T21:19:54.908Z,7.40
2019-02-26T21:22:22.118Z,7.30
2019-02-26T21:24:49.948Z,7.20
2019-02-26T21:27:16.885Z,7.10
2019-02-26T21:29:43.243Z,7.10
2019-02-26T21:32:09.561Z,7.00
2019-02-26T21:34:35.946Z,6.90
2019-02-26T21:37:02.565Z,6.80
2019-02-26T21:39:28.990Z,6.70
2019-02-26T21:41:58.623Z,6.70
2019-02-26T21:44:25.043Z,6.70
2019-02-26T21:46:53.746Z,6.70
2019-02-26T21:49:21.703Z,6.60
2019-02-26T21:51:48.025Z,6.50
2019-02-26T21:54:14.837Z,6.70
2019-02-26T21:56:41.777Z,6.80
2019-02-26T21:59:08.071Z,6.80
2019-02-26T22:01:36.862Z,6.70
2019-02-26T22:04:06.332Z,6.60
2019-02-26T22:06:32.749Z,6.60
2019-02-26T22:08:59.144Z,6.50
2019-02-26T22:11:25.746Z,6.50
2019-02-26T22:13:52.171Z,6.50
2019-02-26T22:16:18.513Z,6.60
2019-02-26T22:18:44.888Z,6.60
2019-02-26T22:21:11.210Z,6.50
2019-02-26T22:23:37.916Z,6.50
2019-02-26T22:26:04.327Z,6.40
2019-02-26T22:28:30.790Z,6.40
2019-02-26T22:30:57.150Z,6.30
2019-02-26T22:33:23.474Z,6.30
2019-02-26T22:35:50.573Z,6.20
2019-02-26T22:38:17.125Z,6.20
2019-02-26T22:40:43.879Z,6.30
2019-02-26T22:43:13.440Z,6.40
2019-02-26T22:45:39.103Z,6.30
2019-02-26T22:48:05.891Z,6.20
2019-02-26T22:50:33.646Z,6.10
2019-02-26T22:53:03.775Z,6.00
2019-02-26T22:55:28.571Z,5.90
2019-02-26T22:57:55.101Z,5.80
2019-02-26T23:00:51.049Z,5.70
2019-02-26T23:03:19.409Z,5.50
2019-02-26T23:05:46.289Z,5.40
2019-02-26T23:08:12.952Z,5.40
2019-02-26T23:10:39.823Z,5.30
2019-02-26T23:13:10.359Z,5.20
2019-02-26T23:15:37.238Z,5.10
2019-02-26T23:18:04.245Z,5.10
2019-02-26T23:20:31.358Z,5.10
2019-02-26T23:22:57.702Z,5.00
2019-02-26T23:25:24.558Z,5.00
2019-02-26T23:27:51.211Z,5.00
2019-02-26T23:30:18.628Z,5.00
2019-02-26T23:32:45.313Z,5.10
2019-02-26T23:35:13.321Z,5.10
2019-02-26T23:37:40.029Z,5.20
2019-02-26T23:40:09.427Z,5.30
2019-02-26T23:42:38.601Z,5.30
2019-02-26T23:45:10.115Z,5.30
2019-02-26T23:47:36.687Z,5.20
2019-02-26T23:50:05.419Z,5.20
2019-02-26T23:52:32.288Z,5.10
2019-02-26T23:54:58.632Z,5.00
2019-02-26T23:57:25.706Z,4.90
2019-02-26T23:59:53.328Z,4.80
